sensor_id;sensor_type;location;lat;lon;timestamp;P1;durP1;ratioP1;P2;durP2;ratioP2
39674;SDS011;27790;50.840;4.386;2022-10-17T00:00:59;8.50;;;6.05;;
39674;SDS011;27790;50.840;4.386;2022-10-17T00:03:24;9.07;;;6.20;;
39674;SDS011;27790;50.840;4.386;2022-10-17T00:05:50;12.07;;;6.90;;
39674;SDS011;27790;50.840;4.386;2022-10-17T00:08:16;11.20;;;6.95;;
39674;SDS011;27790;50.840;4.386;2022-10-17T00:10:43;8.77;;;6.78;;
39674;SDS011;27790;50.840;4.386;2022-10-17T00:13:09;9.48;;;6.47;;
39674;SDS011;27790;50.840;4.386;2022-10-17T00:15:35;13.27;;;7.15;;
39674;SDS011;27790;50.840;4.386;2022-10-17T00:18:01;9.10;;;6.18;;
39674;SDS011;27790;50.840;4.386;2022-10-17T00:20:27;11.73;;;6.53;;
39674;SDS011;27790;50.840;4.386;2022-10-17T00:22:54;12.93;;;6.90;;
39674;SDS011;27790;50.840;4.386;2022-10-17T00:25:21;8.80;;;5.90;;
39674;SDS011;27790;50.840;4.386;2022-10-17T00:27:46;7.43;;;5.85;;
39674;SDS011;27790;50.840;4.386;2022-10-17T00:30:13;12.85;;;6.32;;
39674;SDS011;27790;50.840;4.386;2022-10-17T00:32:40;10.07;;;5.93;;
39674;SDS011;27790;50.840;4.386;2022-10-17T00:35:06;7.10;;;6.30;;
39674;SDS011;27790;50.840;4.386;2022-10-17T00:37:32;8.40;;;6.30;;
39674;SDS011;27790;50.840;4.386;2022-10-17T00:39:58;8.63;;;6.35;;
39674;SDS011;27790;50.840;4.386;2022-10-17T00:42:24;9.02;;;6.28;;
39674;SDS011;27790;50.840;4.386;2022-10-17T00:45:33;9.98;;;6.28;;
39674;SDS011;27790;50.840;4.386;2022-10-17T00:47:42;8.90;;;6.72;;
39674;SDS011;27790;50.840;4.386;2022-10-17T00:50:12;11.95;;;6.38;;
39674;SDS011;27790;50.840;4.386;2022-10-17T00:52:38;12.73;;;6.38;;
39674;SDS011;27790;50.840;4.386;2022-10-17T00:55:13;9.45;;;6.75;;
39674;SDS011;27790;50.840;4.386;2022-10-17T00:57:42;8.23;;;4.75;;
39674;SDS011;27790;50.840;4.386;2022-10-17T01:00:09;16.05;;;6.00;;
39674;SDS011;27790;50.840;4.386;2022-10-17T01:02:35;9.15;;;6.18;;
39674;SDS011;27790;50.840;4.386;2022-10-17T01:05:01;8.50;;;5.60;;
39674;SDS011;27790;50.840;4.386;2022-10-17T01:07:27;9.32;;;5.97;;
39674;SDS011;27790;50.840;4.386;2022-10-17T01:09:54;10.43;;;5.72;;
39674;SDS011;27790;50.840;4.386;2022-10-17T01:12:22;10.05;;;5.90;;
39674;SDS011;27790;50.840;4.386;2022-10-17T01:14:58;7.82;;;6.78;;
39674;SDS011;27790;50.840;4.386;2022-10-17T01:28:21;14.63;;;6.07;;
39674;SDS011;27790;50.840;4.386;2022-10-17T01:30:58;7.20;;;5.88;;
39674;SDS011;27790;50.840;4.386;2022-10-17T01:38:58;12.23;;;6.30;;
39674;SDS011;27790;50.840;4.386;2022-10-17T01:46:53;6.93;;;5.70;;
39674;SDS011;27790;50.840;4.386;2022-10-17T01:49:31;8.25;;;6.20;;
39674;SDS011;27790;50.840;4.386;2022-10-17T01:51:59;7.70;;;5.10;;
39674;SDS011;27790;50.840;4.386;2022-10-17T01:54:44;10.93;;;5.60;;
39674;SDS011;27790;50.840;4.386;2022-10-17T01:57:19;8.52;;;5.40;;
39674;SDS011;27790;50.840;4.386;2022-10-17T01:59:52;9.43;;;5.95;;
39674;SDS011;27790;50.840;4.386;2022-10-17T02:02:20;13.35;;;5.15;;
39674;SDS011;27790;50.840;4.386;2022-10-17T02:04:47;8.00;;;5.20;;
39674;SDS011;27790;50.840;4.386;2022-10-17T02:07:15;8.13;;;5.00;;
39674;SDS011;27790;50.840;4.386;2022-10-17T02:09:41;8.32;;;5.20;;
39674;SDS011;27790;50.840;4.386;2022-10-17T02:12:10;8.13;;;5.63;;
39674;SDS011;27790;50.840;4.386;2022-10-17T02:35:51;5.68;;;5.05;;
39674;SDS011;27790;50.840;4.386;2022-10-17T02:38:19;7.97;;;5.10;;
39674;SDS011;27790;50.840;4.386;2022-10-17T02:40:47;11.32;;;5.57;;
39674;SDS011;27790;50.840;4.386;2022-10-17T02:43:15;11.85;;;5.55;;
39674;SDS011;27790;50.840;4.386;2022-10-17T02:45:41;6.47;;;4.88;;
39674;SDS011;27790;50.840;4.386;2022-10-17T02:53:25;14.50;;;5.50;;
39674;SDS011;27790;50.840;4.386;2022-10-17T02:56:01;12.57;;;6.00;;
39674;SDS011;27790;50.840;4.386;2022-10-17T02:58:31;6.75;;;5.38;;
39674;SDS011;27790;50.840;4.386;2022-10-17T03:00:59;11.75;;;5.15;;
39674;SDS011;27790;50.840;4.386;2022-10-17T03:03:26;8.65;;;4.93;;
39674;SDS011;27790;50.840;4.386;2022-10-17T03:05:54;9.32;;;5.80;;
39674;SDS011;27790;50.840;4.386;2022-10-17T03:08:20;8.75;;;5.35;;
39674;SDS011;27790;50.840;4.386;2022-10-17T03:10:47;11.90;;;5.40;;
39674;SDS011;27790;50.840;4.386;2022-10-17T03:13:13;9.40;;;4.93;;
39674;SDS011;27790;50.840;4.386;2022-10-17T03:15:40;6.85;;;4.85;;
39674;SDS011;27790;50.840;4.386;2022-10-17T03:18:05;14.45;;;5.55;;
39674;SDS011;27790;50.840;4.386;2022-10-17T03:20:31;10.80;;;5.95;;
39674;SDS011;27790;50.840;4.386;2022-10-17T03:22:57;7.45;;;5.15;;
39674;SDS011;27790;50.840;4.386;2022-10-17T03:25:22;7.97;;;4.93;;
39674;SDS011;27790;50.840;4.386;2022-10-17T03:27:48;6.85;;;4.40;;
39674;SDS011;27790;50.840;4.386;2022-10-17T03:30:13;5.68;;;5.05;;
39674;SDS011;27790;50.840;4.386;2022-10-17T03:32:39;9.98;;;5.35;;
39674;SDS011;27790;50.840;4.386;2022-10-17T03:35:05;8.48;;;5.75;;
39674;SDS011;27790;50.840;4.386;2022-10-17T03:37:30;10.35;;;5.82;;
39674;SDS011;27790;50.840;4.386;2022-10-17T03:39:56;7.75;;;5.13;;
39674;SDS011;27790;50.840;4.386;2022-10-17T03:42:22;10.80;;;5.95;;
39674;SDS011;27790;50.840;4.386;2022-10-17T03:44:47;7.85;;;5.78;;
39674;SDS011;27790;50.840;4.386;2022-10-17T03:47:13;6.53;;;5.00;;
39674;SDS011;27790;50.840;4.386;2022-10-17T03:49:38;11.90;;;4.75;;
39674;SDS011;27790;50.840;4.386;2022-10-17T03:52:04;17.05;;;6.32;;
39674;SDS011;27790;50.840;4.386;2022-10-17T03:54:29;9.82;;;6.05;;
39674;SDS011;27790;50.840;4.386;2022-10-17T03:56:55;10.75;;;5.28;;
39674;SDS011;27790;50.840;4.386;2022-10-17T03:59:21;7.45;;;5.82;;
39674;SDS011;27790;50.840;4.386;2022-10-17T04:01:46;13.30;;;5.93;;
39674;SDS011;27790;50.840;4.386;2022-10-17T04:04:12;13.48;;;5.22;;
39674;SDS011;27790;50.840;4.386;2022-10-17T04:06:37;11.13;;;5.03;;
39674;SDS011;27790;50.840;4.386;2022-10-17T04:09:04;15.38;;;5.57;;
39674;SDS011;27790;50.840;4.386;2022-10-17T04:11:30;10.65;;;6.43;;
39674;SDS011;27790;50.840;4.386;2022-10-17T04:13:56;14.98;;;7.57;;
39674;SDS011;27790;50.840;4.386;2022-10-17T04:16:23;13.38;;;5.95;;
39674;SDS011;27790;50.840;4.386;2022-10-17T04:18:57;10.80;;;5.75;;
39674;SDS011;27790;50.840;4.386;2022-10-17T04:21:24;8.77;;;4.88;;
39674;SDS011;27790;50.840;4.386;2022-10-17T04:23:51;7.55;;;5.30;;
39674;SDS011;27790;50.840;4.386;2022-10-17T04:26:18;12.68;;;5.55;;
39674;SDS011;27790;50.840;4.386;2022-10-17T04:28:44;11.30;;;5.63;;
39674;SDS011;27790;50.840;4.386;2022-10-17T04:31:10;6.57;;;5.15;;
39674;SDS011;27790;50.840;4.386;2022-10-17T04:33:38;12.48;;;5.25;;
39674;SDS011;27790;50.840;4.386;2022-10-17T04:36:05;11.18;;;5.03;;
39674;SDS011;27790;50.840;4.386;2022-10-17T04:38:36;7.63;;;4.75;;
39674;SDS011;27790;50.840;4.386;2022-10-17T04:41:03;6.80;;;4.72;;
39674;SDS011;27790;50.840;4.386;2022-10-17T04:43:32;10.63;;;5.38;;
39674;SDS011;27790;50.840;4.386;2022-10-17T04:46:00;9.98;;;4.32;;
39674;SDS011;27790;50.840;4.386;2022-10-17T04:48:27;10.45;;;4.80;;
39674;SDS011;27790;50.840;4.386;2022-10-17T04:50:53;7.95;;;4.47;;
39674;SDS011;27790;50.840;4.386;2022-10-17T04:53:23;8.23;;;4.30;;
39674;SDS011;27790;50.840;4.386;2022-10-17T04:55:49;5.72;;;4.90;;
39674;SDS011;27790;50.840;4.386;2022-10-17T04:58:15;12.27;;;4.93;;
39674;SDS011;27790;50.840;4.386;2022-10-17T05:00:41;9.02;;;4.50;;
39674;SDS011;27790;50.840;4.386;2022-10-17T05:03:07;14.23;;;5.60;;
39674;SDS011;27790;50.840;4.386;2022-10-17T05:05:33;14.25;;;4.70;;
39674;SDS011;27790;50.840;4.386;2022-10-17T05:08:02;6.63;;;4.78;;
39674;SDS011;27790;50.840;4.386;2022-10-17T05:10:28;7.00;;;4.40;;
39674;SDS011;27790;50.840;4.386;2022-10-17T05:12:53;12.80;;;4.72;;
39674;SDS011;27790;50.840;4.386;2022-10-17T05:15:19;8.05;;;4.35;;
39674;SDS011;27790;50.840;4.386;2022-10-17T05:17:44;11.15;;;5.03;;
39674;SDS011;27790;50.840;4.386;2022-10-17T05:20:10;6.18;;;4.00;;
39674;SDS011;27790;50.840;4.386;2022-10-17T05:22:36;6.85;;;5.10;;
39674;SDS011;27790;50.840;4.386;2022-10-17T05:25:02;10.98;;;4.75;;
39674;SDS011;27790;50.840;4.386;2022-10-17T05:27:27;11.77;;;4.40;;
39674;SDS011;27790;50.840;4.386;2022-10-17T05:29:53;6.18;;;3.83;;
39674;SDS011;27790;50.840;4.386;2022-10-17T05:32:18;10.57;;;5.22;;
39674;SDS011;27790;50.840;4.386;2022-10-17T05:34:44;12.50;;;4.68;;
39674;SDS011;27790;50.840;4.386;2022-10-17T05:37:10;13.23;;;4.70;;
39674;SDS011;27790;50.840;4.386;2022-10-17T05:39:35;10.15;;;5.05;;
39674;SDS011;27790;50.840;4.386;2022-10-17T05:42:01;13.32;;;4.75;;
39674;SDS011;27790;50.840;4.386;2022-10-17T05:44:26;11.75;;;4.93;;
39674;SDS011;27790;50.840;4.386;2022-10-17T05:46:52;11.50;;;4.70;;
39674;SDS011;27790;50.840;4.386;2022-10-17T05:49:17;10.00;;;3.72;;
39674;SDS011;27790;50.840;4.386;2022-10-17T05:51:43;8.23;;;4.35;;
39674;SDS011;27790;50.840;4.386;2022-10-17T05:54:09;15.70;;;4.78;;
39674;SDS011;27790;50.840;4.386;2022-10-17T05:56:34;15.25;;;4.60;;
39674;SDS011;27790;50.840;4.386;2022-10-17T05:59:00;17.40;;;4.45;;
39674;SDS011;27790;50.840;4.386;2022-10-17T06:01:26;11.80;;;4.20;;
39674;SDS011;27790;50.840;4.386;2022-10-17T06:03:51;19.83;;;4.80;;
39674;SDS011;27790;50.840;4.386;2022-10-17T06:06:17;6.60;;;3.58;;
39674;SDS011;27790;50.840;4.386;2022-10-17T06:08:43;10.23;;;3.85;;
39674;SDS011;27790;50.840;4.386;2022-10-17T06:11:10;17.10;;;5.35;;
39674;SDS011;27790;50.840;4.386;2022-10-17T06:13:38;20.50;;;5.15;;
39674;SDS011;27790;50.840;4.386;2022-10-17T06:16:04;18.48;;;4.65;;
39674;SDS011;27790;50.840;4.386;2022-10-17T06:18:30;17.02;;;4.00;;
39674;SDS011;27790;50.840;4.386;2022-10-17T06:23:33;23.40;;;5.38;;
39674;SDS011;27790;50.840;4.386;2022-10-17T06:25:59;12.63;;;5.05;;
39674;SDS011;27790;50.840;4.386;2022-10-17T06:28:26;27.42;;;5.57;;
39674;SDS011;27790;50.840;4.386;2022-10-17T06:30:52;15.63;;;5.10;;
39674;SDS011;27790;50.840;4.386;2022-10-17T06:33:18;16.65;;;4.65;;
39674;SDS011;27790;50.840;4.386;2022-10-17T06:35:49;17.02;;;4.85;;
39674;SDS011;27790;50.840;4.386;2022-10-17T06:38:16;32.60;;;5.75;;
39674;SDS011;27790;50.840;4.386;2022-10-17T06:40:42;9.93;;;4.30;;
39674;SDS011;27790;50.840;4.386;2022-10-17T06:43:07;7.35;;;3.75;;
39674;SDS011;27790;50.840;4.386;2022-10-17T06:45:33;18.85;;;4.65;;
39674;SDS011;27790;50.840;4.386;2022-10-17T06:47:58;13.35;;;3.72;;
39674;SDS011;27790;50.840;4.386;2022-10-17T06:50:26;7.05;;;4.18;;
39674;SDS011;27790;50.840;4.386;2022-10-17T06:52:51;11.25;;;4.68;;
39674;SDS011;27790;50.840;4.386;2022-10-17T06:55:17;22.98;;;6.05;;
39674;SDS011;27790;50.840;4.386;2022-10-17T06:57:42;9.63;;;4.80;;
39674;SDS011;27790;50.840;4.386;2022-10-17T07:00:08;13.27;;;4.55;;
39674;SDS011;27790;50.840;4.386;2022-10-17T07:02:35;5.88;;;3.50;;
39674;SDS011;27790;50.840;4.386;2022-10-17T07:05:00;7.03;;;3.58;;
39674;SDS011;27790;50.840;4.386;2022-10-17T07:07:29;10.13;;;3.80;;
39674;SDS011;27790;50.840;4.386;2022-10-17T07:32:34;8.25;;;4.22;;
39674;SDS011;27790;50.840;4.386;2022-10-17T07:35:00;12.80;;;4.85;;
39674;SDS011;27790;50.840;4.386;2022-10-17T07:37:26;18.60;;;4.93;;
39674;SDS011;27790;50.840;4.386;2022-10-17T07:39:52;5.65;;;4.43;;
39674;SDS011;27790;50.840;4.386;2022-10-17T07:42:18;10.20;;;4.72;;
39674;SDS011;27790;50.840;4.386;2022-10-17T07:44:46;6.07;;;4.68;;
39674;SDS011;27790;50.840;4.386;2022-10-17T07:47:12;11.43;;;4.57;;
39674;SDS011;27790;50.840;4.386;2022-10-17T07:49:38;9.30;;;5.18;;
39674;SDS011;27790;50.840;4.386;2022-10-17T07:52:08;11.98;;;5.55;;
39674;SDS011;27790;50.840;4.386;2022-10-17T07:54:35;9.80;;;5.25;;
39674;SDS011;27790;50.840;4.386;2022-10-17T07:57:00;9.32;;;5.90;;
39674;SDS011;27790;50.840;4.386;2022-10-17T07:59:28;13.90;;;5.50;;
39674;SDS011;27790;50.840;4.386;2022-10-17T08:01:56;10.30;;;6.85;;
39674;SDS011;27790;50.840;4.386;2022-10-17T08:04:24;15.95;;;10.35;;
39674;SDS011;27790;50.840;4.386;2022-10-17T08:06:50;11.77;;;7.70;;
39674;SDS011;27790;50.840;4.386;2022-10-17T08:09:18;10.18;;;6.22;;
39674;SDS011;27790;50.840;4.386;2022-10-17T08:11:44;7.40;;;5.50;;
39674;SDS011;27790;50.840;4.386;2022-10-17T08:14:11;12.98;;;6.03;;
39674;SDS011;27790;50.840;4.386;2022-10-17T08:16:38;11.70;;;5.65;;
39674;SDS011;27790;50.840;4.386;2022-10-17T08:19:04;16.52;;;6.70;;
39674;SDS011;27790;50.840;4.386;2022-10-17T08:21:32;9.30;;;6.18;;
39674;SDS011;27790;50.840;4.386;2022-10-17T08:23:58;18.05;;;6.32;;
39674;SDS011;27790;50.840;4.386;2022-10-17T08:26:26;7.68;;;5.75;;
39674;SDS011;27790;50.840;4.386;2022-10-17T08:28:52;12.38;;;6.40;;
39674;SDS011;27790;50.840;4.386;2022-10-17T08:31:19;9.45;;;7.57;;
39674;SDS011;27790;50.840;4.386;2022-10-17T08:33:45;16.38;;;7.22;;
39674;SDS011;27790;50.840;4.386;2022-10-17T08:36:13;8.02;;;6.55;;
39674;SDS011;27790;50.840;4.386;2022-10-17T08:38:40;13.98;;;6.70;;
39674;SDS011;27790;50.840;4.386;2022-10-17T08:44:08;20.70;;;7.10;;
39674;SDS011;27790;50.840;4.386;2022-10-17T08:46:35;14.00;;;7.68;;
39674;SDS011;27790;50.840;4.386;2022-10-17T08:49:03;15.10;;;6.72;;
39674;SDS011;27790;50.840;4.386;2022-10-17T08:51:35;10.32;;;5.97;;
39674;SDS011;27790;50.840;4.386;2022-10-17T08:54:41;17.55;;;12.68;;
39674;SDS011;27790;50.840;4.386;2022-10-17T08:57:13;18.75;;;7.15;;
39674;SDS011;27790;50.840;4.386;2022-10-17T08:59:41;9.57;;;7.00;;
39674;SDS011;27790;50.840;4.386;2022-10-17T09:07:53;10.15;;;6.22;;
39674;SDS011;27790;50.840;4.386;2022-10-17T09:15:59;8.95;;;5.43;;
39674;SDS011;27790;50.840;4.386;2022-10-17T09:18:38;7.47;;;5.70;;
39674;SDS011;27790;50.840;4.386;2022-10-17T09:23:47;12.85;;;5.32;;
39674;SDS011;27790;50.840;4.386;2022-10-17T09:26:21;23.92;;;6.60;;
39674;SDS011;27790;50.840;4.386;2022-10-17T09:28:51;16.83;;;7.00;;
39674;SDS011;27790;50.840;4.386;2022-10-17T09:31:22;12.80;;;6.72;;
39674;SDS011;27790;50.840;4.386;2022-10-17T09:33:51;8.23;;;5.45;;
39674;SDS011;27790;50.840;4.386;2022-10-17T09:36:20;12.77;;;5.75;;
39674;SDS011;27790;50.840;4.386;2022-10-17T09:38:49;13.00;;;6.20;;
39674;SDS011;27790;50.840;4.386;2022-10-17T09:41:19;12.43;;;6.60;;
39674;SDS011;27790;50.840;4.386;2022-10-17T09:43:55;15.15;;;6.57;;
39674;SDS011;27790;50.840;4.386;2022-10-17T09:46:24;8.25;;;5.50;;
39674;SDS011;27790;50.840;4.386;2022-10-17T09:48:56;8.13;;;6.53;;
39674;SDS011;27790;50.840;4.386;2022-10-17T09:51:26;14.88;;;6.20;;
39674;SDS011;27790;50.840;4.386;2022-10-17T09:53:54;9.57;;;6.15;;
39674;SDS011;27790;50.840;4.386;2022-10-17T09:56:24;12.88;;;6.47;;
39674;SDS011;27790;50.840;4.386;2022-10-17T09:58:51;10.32;;;5.93;;
39674;SDS011;27790;50.840;4.386;2022-10-17T10:06:32;9.23;;;6.15;;
39674;SDS011;27790;50.840;4.386;2022-10-17T10:08:58;20.48;;;13.48;;
39674;SDS011;27790;50.840;4.386;2022-10-17T10:14:23;11.93;;;6.15;;
39674;SDS011;27790;50.840;4.386;2022-10-17T10:16:52;12.60;;;6.22;;
39674;SDS011;27790;50.840;4.386;2022-10-17T10:21:57;14.23;;;7.07;;
39674;SDS011;27790;50.840;4.386;2022-10-17T10:24:24;17.15;;;7.80;;
39674;SDS011;27790;50.840;4.386;2022-10-17T10:26:51;10.45;;;6.57;;
39674;SDS011;27790;50.840;4.386;2022-10-17T10:29:25;11.52;;;6.63;;
39674;SDS011;27790;50.840;4.386;2022-10-17T10:31:54;10.45;;;6.95;;
39674;SDS011;27790;50.840;4.386;2022-10-17T10:34:47;17.77;;;6.60;;
39674;SDS011;27790;50.840;4.386;2022-10-17T10:40:03;11.13;;;7.22;;
39674;SDS011;27790;50.840;4.386;2022-10-17T10:42:31;10.15;;;6.47;;
39674;SDS011;27790;50.840;4.386;2022-10-17T10:53:11;13.90;;;6.28;;
39674;SDS011;27790;50.840;4.386;2022-10-17T10:55:51;18.05;;;7.40;;
39674;SDS011;27790;50.840;4.386;2022-10-17T10:58:25;13.05;;;7.32;;
39674;SDS011;27790;50.840;4.386;2022-10-17T11:00:52;13.05;;;6.97;;
39674;SDS011;27790;50.840;4.386;2022-10-17T11:03:30;12.38;;;7.18;;
39674;SDS011;27790;50.840;4.386;2022-10-17T11:11:40;10.25;;;5.20;;
39674;SDS011;27790;50.840;4.386;2022-10-17T11:14:18;9.73;;;6.38;;
39674;SDS011;27790;50.840;4.386;2022-10-17T11:17:15;8.27;;;5.43;;
39674;SDS011;27790;50.840;4.386;2022-10-17T11:22:22;10.73;;;6.00;;
39674;SDS011;27790;50.840;4.386;2022-10-17T11:25:00;9.35;;;5.88;;
39674;SDS011;27790;50.840;4.386;2022-10-17T11:27:38;9.32;;;6.45;;
39674;SDS011;27790;50.840;4.386;2022-10-17T11:30:03;12.38;;;5.82;;
39674;SDS011;27790;50.840;4.386;2022-10-17T11:35:04;12.35;;;5.68;;
39674;SDS011;27790;50.840;4.386;2022-10-17T11:37:45;10.55;;;6.75;;
39674;SDS011;27790;50.840;4.386;2022-10-17T11:40:21;10.02;;;5.85;;
39674;SDS011;27790;50.840;4.386;2022-10-17T11:43:16;10.20;;;6.43;;
39674;SDS011;27790;50.840;4.386;2022-10-17T11:45:52;10.15;;;6.45;;
39674;SDS011;27790;50.840;4.386;2022-10-17T11:48:33;10.57;;;6.00;;
39674;SDS011;27790;50.840;4.386;2022-10-17T11:51:03;32.17;;;6.05;;
39674;SDS011;27790;50.840;4.386;2022-10-17T11:53:41;10.82;;;6.13;;
39674;SDS011;27790;50.840;4.386;2022-10-17T11:56:20;11.00;;;5.70;;
39674;SDS011;27790;50.840;4.386;2022-10-17T12:01:48;13.23;;;6.20;;
39674;SDS011;27790;50.840;4.386;2022-10-17T12:20:28;16.10;;;6.95;;
39674;SDS011;27790;50.840;4.386;2022-10-17T12:25:35;13.10;;;6.95;;
39674;SDS011;27790;50.840;4.386;2022-10-17T12:30:58;14.98;;;6.70;;
39674;SDS011;27790;50.840;4.386;2022-10-17T12:38:48;14.77;;;7.18;;
39674;SDS011;27790;50.840;4.386;2022-10-17T12:44:05;17.73;;;8.07;;
39674;SDS011;27790;50.840;4.386;2022-10-17T12:49:51;9.75;;;6.60;;
39674;SDS011;27790;50.840;4.386;2022-10-17T12:55:04;11.88;;;7.60;;
39674;SDS011;27790;50.840;4.386;2022-10-17T13:03:12;11.95;;;7.32;;
39674;SDS011;27790;50.840;4.386;2022-10-17T13:05:44;8.57;;;6.68;;
39674;SDS011;27790;50.840;4.386;2022-10-17T13:08:16;9.48;;;7.00;;
39674;SDS011;27790;50.840;4.386;2022-10-17T13:11:06;13.18;;;7.05;;
39674;SDS011;27790;50.840;4.386;2022-10-17T13:15:58;9.63;;;6.97;;
39674;SDS011;27790;50.840;4.386;2022-10-17T13:18:25;18.00;;;7.03;;
39674;SDS011;27790;50.840;4.386;2022-10-17T13:20:56;10.32;;;6.80;;
39674;SDS011;27790;50.840;4.386;2022-10-17T13:23:27;7.30;;;6.22;;
39674;SDS011;27790;50.840;4.386;2022-10-17T13:28:31;12.10;;;6.18;;
39674;SDS011;27790;50.840;4.386;2022-10-17T13:30:57;27.70;;;8.07;;
39674;SDS011;27790;50.840;4.386;2022-10-17T13:36:03;9.10;;;5.70;;
39674;SDS011;27790;50.840;4.386;2022-10-17T13:38:31;7.78;;;4.50;;
39674;SDS011;27790;50.840;4.386;2022-10-17T13:40:59;7.88;;;5.28;;
39674;SDS011;27790;50.840;4.386;2022-10-17T13:43:25;9.68;;;4.78;;
39674;SDS011;27790;50.840;4.386;2022-10-17T13:45:56;12.38;;;5.00;;
39674;SDS011;27790;50.840;4.386;2022-10-17T13:48:28;9.52;;;4.15;;
39674;SDS011;27790;50.840;4.386;2022-10-17T13:50:56;6.72;;;3.65;;
39674;SDS011;27790;50.840;4.386;2022-10-17T13:56:04;9.35;;;3.90;;
39674;SDS011;27790;50.840;4.386;2022-10-17T14:01:42;6.72;;;4.00;;
39674;SDS011;27790;50.840;4.386;2022-10-17T14:04:08;7.85;;;3.70;;
39674;SDS011;27790;50.840;4.386;2022-10-17T14:06:36;13.30;;;3.20;;
39674;SDS011;27790;50.840;4.386;2022-10-17T14:09:15;3.27;;;2.63;;
39674;SDS011;27790;50.840;4.386;2022-10-17T14:14:37;10.23;;;2.90;;
39674;SDS011;27790;50.840;4.386;2022-10-17T14:17:11;8.10;;;2.90;;
39674;SDS011;27790;50.840;4.386;2022-10-17T14:19:38;5.28;;;2.88;;
39674;SDS011;27790;50.840;4.386;2022-10-17T14:22:15;8.40;;;2.85;;
39674;SDS011;27790;50.840;4.386;2022-10-17T14:24:48;16.42;;;3.33;;
39674;SDS011;27790;50.840;4.386;2022-10-17T14:27:24;5.53;;;4.07;;
39674;SDS011;27790;50.840;4.386;2022-10-17T14:29:55;5.28;;;2.70;;
39674;SDS011;27790;50.840;4.386;2022-10-17T14:32:27;4.53;;;2.30;;
39674;SDS011;27790;50.840;4.386;2022-10-17T14:34:55;11.43;;;2.97;;
39674;SDS011;27790;50.840;4.386;2022-10-17T14:39:53;5.95;;;3.97;;
39674;SDS011;27790;50.840;4.386;2022-10-17T14:42:19;5.03;;;2.75;;
39674;SDS011;27790;50.840;4.386;2022-10-17T14:44:50;3.70;;;2.65;;
39674;SDS011;27790;50.840;4.386;2022-10-17T14:47:21;6.00;;;3.10;;
39674;SDS011;27790;50.840;4.386;2022-10-17T14:49:55;6.53;;;3.03;;
39674;SDS011;27790;50.840;4.386;2022-10-17T14:52:28;5.40;;;2.80;;
39674;SDS011;27790;50.840;4.386;2022-10-17T14:54:56;4.22;;;2.70;;
39674;SDS011;27790;50.840;4.386;2022-10-17T14:57:24;9.40;;;2.90;;
39674;SDS011;27790;50.840;4.386;2022-10-17T14:59:58;4.63;;;2.72;;
39674;SDS011;27790;50.840;4.386;2022-10-17T15:02:25;4.30;;;2.70;;
39674;SDS011;27790;50.840;4.386;2022-10-17T15:04:52;3.35;;;2.58;;
39674;SDS011;27790;50.840;4.386;2022-10-17T15:07:18;6.13;;;3.20;;
39674;SDS011;27790;50.840;4.386;2022-10-17T15:09:46;5.78;;;2.80;;
39674;SDS011;27790;50.840;4.386;2022-10-17T15:12:14;5.50;;;3.08;;
39674;SDS011;27790;50.840;4.386;2022-10-17T15:14:42;5.60;;;2.92;;
39674;SDS011;27790;50.840;4.386;2022-10-17T15:17:12;5.47;;;2.75;;
39674;SDS011;27790;50.840;4.386;2022-10-17T15:19:46;4.28;;;3.45;;
39674;SDS011;27790;50.840;4.386;2022-10-17T15:22:12;4.30;;;3.15;;
39674;SDS011;27790;50.840;4.386;2022-10-17T15:24:39;4.38;;;3.33;;
39674;SDS011;27790;50.840;4.386;2022-10-17T15:27:06;5.50;;;3.80;;
39674;SDS011;27790;50.840;4.386;2022-10-17T15:29:40;6.82;;;3.33;;
39674;SDS011;27790;50.840;4.386;2022-10-17T15:32:06;5.18;;;2.85;;
39674;SDS011;27790;50.840;4.386;2022-10-17T15:34:32;5.55;;;2.95;;
39674;SDS011;27790;50.840;4.386;2022-10-17T15:36:57;5.72;;;2.78;;
39674;SDS011;27790;50.840;4.386;2022-10-17T15:39:23;5.53;;;3.00;;
39674;SDS011;27790;50.840;4.386;2022-10-17T15:41:49;6.47;;;3.28;;
39674;SDS011;27790;50.840;4.386;2022-10-17T15:44:15;5.88;;;3.30;;
39674;SDS011;27790;50.840;4.386;2022-10-17T15:46:41;6.32;;;3.42;;
39674;SDS011;27790;50.840;4.386;2022-10-17T15:49:09;4.63;;;3.15;;
39674;SDS011;27790;50.840;4.386;2022-10-17T15:51:41;4.40;;;3.97;;
39674;SDS011;27790;50.840;4.386;2022-10-17T15:54:06;6.13;;;3.58;;
39674;SDS011;27790;50.840;4.386;2022-10-17T15:59:13;3.38;;;2.90;;
39674;SDS011;27790;50.840;4.386;2022-10-17T16:01:41;6.65;;;2.88;;
39674;SDS011;27790;50.840;4.386;2022-10-17T16:04:11;9.25;;;3.60;;
39674;SDS011;27790;50.840;4.386;2022-10-17T16:06:39;4.85;;;3.00;;
39674;SDS011;27790;50.840;4.386;2022-10-17T16:09:05;8.38;;;3.05;;
39674;SDS011;27790;50.840;4.386;2022-10-17T16:11:38;6.32;;;3.10;;
39674;SDS011;27790;50.840;4.386;2022-10-17T16:14:09;10.52;;;3.35;;
39674;SDS011;27790;50.840;4.386;2022-10-17T16:16:36;9.15;;;3.00;;
39674;SDS011;27790;50.840;4.386;2022-10-17T16:19:02;4.38;;;2.67;;
39674;SDS011;27790;50.840;4.386;2022-10-17T16:21:29;7.78;;;2.92;;
39674;SDS011;27790;50.840;4.386;2022-10-17T16:23:57;3.20;;;2.42;;
39674;SDS011;27790;50.840;4.386;2022-10-17T16:26:23;6.85;;;3.50;;
39674;SDS011;27790;50.840;4.386;2022-10-17T16:28:48;5.57;;;3.33;;
39674;SDS011;27790;50.840;4.386;2022-10-17T16:33:42;4.82;;;3.17;;
39674;SDS011;27790;50.840;4.386;2022-10-17T16:36:08;5.95;;;2.90;;
39674;SDS011;27790;50.840;4.386;2022-10-17T16:38:34;6.63;;;3.50;;
39674;SDS011;27790;50.840;4.386;2022-10-17T16:40:59;6.45;;;3.72;;
39674;SDS011;27790;50.840;4.386;2022-10-17T16:43:25;7.35;;;3.28;;
39674;SDS011;27790;50.840;4.386;2022-10-17T16:45:51;5.70;;;3.83;;
39674;SDS011;27790;50.840;4.386;2022-10-17T16:48:16;7.03;;;4.03;;
39674;SDS011;27790;50.840;4.386;2022-10-17T16:50:42;4.95;;;3.60;;
39674;SDS011;27790;50.840;4.386;2022-10-17T16:53:07;4.55;;;3.60;;
39674;SDS011;27790;50.840;4.386;2022-10-17T16:55:33;4.55;;;4.07;;
39674;SDS011;27790;50.840;4.386;2022-10-17T16:57:59;6.63;;;3.72;;
39674;SDS011;27790;50.840;4.386;2022-10-17T17:00:25;8.00;;;3.75;;
39674;SDS011;27790;50.840;4.386;2022-10-17T17:02:51;5.57;;;4.63;;
39674;SDS011;27790;50.840;4.386;2022-10-17T17:05:16;10.23;;;4.55;;
39674;SDS011;27790;50.840;4.386;2022-10-17T17:07:42;7.35;;;4.00;;
39674;SDS011;27790;50.840;4.386;2022-10-17T17:10:07;9.48;;;4.55;;
39674;SDS011;27790;50.840;4.386;2022-10-17T17:12:34;9.20;;;6.03;;
39674;SDS011;27790;50.840;4.386;2022-10-17T17:15:00;7.03;;;6.00;;
39674;SDS011;27790;50.840;4.386;2022-10-17T17:17:26;11.57;;;6.53;;
39674;SDS011;27790;50.840;4.386;2022-10-17T17:19:52;9.75;;;7.18;;
39674;SDS011;27790;50.840;4.386;2022-10-17T17:22:18;10.60;;;6.75;;
39674;SDS011;27790;50.840;4.386;2022-10-17T17:24:44;14.82;;;6.88;;
39674;SDS011;27790;50.840;4.386;2022-10-17T17:27:09;10.55;;;6.50;;
39674;SDS011;27790;50.840;4.386;2022-10-17T17:29:35;9.05;;;6.15;;
39674;SDS011;27790;50.840;4.386;2022-10-17T17:32:00;12.35;;;6.60;;
39674;SDS011;27790;50.840;4.386;2022-10-17T17:34:26;9.30;;;6.78;;
39674;SDS011;27790;50.840;4.386;2022-10-17T17:36:51;10.60;;;7.13;;
39674;SDS011;27790;50.840;4.386;2022-10-17T17:39:17;10.25;;;6.47;;
39674;SDS011;27790;50.840;4.386;2022-10-17T17:41:43;8.63;;;7.00;;
39674;SDS011;27790;50.840;4.386;2022-10-17T17:44:10;18.23;;;6.55;;
39674;SDS011;27790;50.840;4.386;2022-10-17T17:46:37;8.90;;;6.65;;
39674;SDS011;27790;50.840;4.386;2022-10-17T17:49:03;13.93;;;6.97;;
39674;SDS011;27790;50.840;4.386;2022-10-17T17:51:28;10.70;;;6.05;;
39674;SDS011;27790;50.840;4.386;2022-10-17T17:53:54;8.60;;;5.70;;
39674;SDS011;27790;50.840;4.386;2022-10-17T17:56:24;6.63;;;5.68;;
39674;SDS011;27790;50.840;4.386;2022-10-17T17:58:53;6.32;;;5.68;;